TFM - Tactical Decision Aid (Experimental) INFO Settings
ID: Runway Winds: CIG/VIS Threshold: METAR Board: Map:

KDFW - Dallas/Fort Worth Intl

Updated at: 1308 UTC 28 Jun 2016
Latest TAF at: 1120 UTC 28 Jun 2016

TAF Board

Time1253Z28/14Z28/15Z28/16Z28/17Z28/18Z28/19Z28/20Z28/21Z28/22Z28/23Z29/00Z29/01Z29/02Z
TypeOBSPRVLPRVLPRVLPRVLPRVLPRVLPRVLPRVLPRVLPRVLPRVLPRVLPRVL
VIS10>6>6>6>6>6>6>6>6>6>6>6>6>6
CIG----------404040------------
CoverFEWSCTSCTSCTSCTBKNBKNBKNSCTSCTSCTSCTSCTSCT
FltCatVFRVFRVFRVFRVFRVFRVFRVFRVFRVFRVFRVFRVFRVFR
WX----------VCTSVCTSVCTS------------
WDir34010101010202020505050505050
WSpd47777999888888
WGst----------------------------
TAF
KDFW 281120Z 2812/2918 01007KT P6SM SCT180
  FM281800 02009KT P6SM VCTS BKN040CB
  FM282100 05008KT P6SM SCT040


METAR
KDFW 281253Z 34004KT 10SM FEW180 FEW250 29/23 A3007 RMK AO2 SLP174 T02890233
KDFW 281153Z 34006KT 10SM FEW180 FEW250 27/23 A3006 RMK AO2 SLP170 T02670228 10283 20256 53005

TAF/METAR Board Legend

Potential Impact
  None Marginal Slight Moderate High
Visibility (sm) >5 3≤X≤5 1≤X<3 0.5≤X<1 <0.5
Ceiling (100 ft) >30 10≤X≤30 4≤X<10 2≤X<4 <2
Wind Speed (kt) <10 10≤X<20 20≤X<30 ≥30
Wind Gust (kt) <15 15≤X<25 25≤X<35 ≥35
Weather No Wx Reported VCTS -TS,-FZRA TS,FZRA +TS,+FZRA




Page loaded:  13:08 UTC  |   06:08 AM Pacific  |   07:08 AM Mountain  |   08:08 AM Central  |   09:08 AM Eastern